Página principal
METAR-TAF:

METAR-TAF

Aeroportos :

Aeroporto de Gibraltar

Gibraltar, Gibraltar

latitude: 36-09N, longitude: 005-21W, altura: 5 m

Observação actual do tempo

O boletim foi feito há 36 minutos, às 20:50 UTC
Vento 11 kt de oeste
Temperatura 14°C
Humidade 72%
Pressão 1027 hPa
Visibilidade 10 km ou mais

METAR: LXGB 142050Z AUTO 26011KT 9999 // NCD 14/09 Q1027

Hora: 22:26 (21:26 UTC)

Previsão

O boletim foi feito há 4 horas e 59 minutos, às 16:27 UTC
Previsão válida de 14 às 18 UTC a 14 às 23 UTC
Vento 11 kt de oeste
Visibilidade 10 km ou mais
Poucas nuvensa uma altura de 4000 ft

TAF: LXGB 141627Z 1418/1423 27011KT 9999 FEW040

Observações e previsões do tempo de mais de 4000 aeroportos (mensagens METAR e TAF).

As estações disponíveis são os pontos amarelos e vermelhos sobre o mapa.

Mova o rato sobre o mapa para ver o nome da estação.

Depois clique no ponto para visualizar as observações e previsões meteorológicas.

Para alterar o mapa : clique nos botões verdes com uma cruz preta para aumentar o zoom; no botão verde com uma pitada de zoom; ou nas setas verdes para mapas adjacentes.


METAR-TAF: